Time;durP1;ratioP1;P1;durP2;ratioP2;P2;SDS_P1;SDS_P2;PMS_P1;PMS_P2;Temp;Humidity;BMP_temperature;BMP_pressure;BME280_temperature;BME280_humidity;BME280_pressure;Samples;Min_cycle;Max_cycle;Signal;HPM_P1;HPM_P2
2022/08/26 00:01:40;;;;;;;6.05;1.92;;;;;;;26.72;38.65;101908.91;5116101;28;20023;-47
2022/08/26 00:04:09;;;;;;;12.52;2.17;;;;;;;26.66;38.67;101907.03;5116203;28;20076;-47
2022/08/26 00:06:38;;;;;;;9.00;2.38;;;;;;;26.63;38.78;101902.59;5098415;28;20130;-50
2022/08/26 00:09:07;;;;;;;7.63;2.50;;;;;;;26.57;38.73;101902.50;5116403;28;20047;-48
2022/08/26 00:11:35;;;;;;;9.25;2.22;;;;;;;26.52;38.76;101902.41;5098495;28;20077;-50
2022/08/26 00:14:04;;;;;;;5.40;1.80;;;;;;;26.57;38.91;101905.13;5116259;28;20460;-47
2022/08/26 00:16:32;;;;;;;9.77;2.83;;;;;;;26.50;38.67;101898.88;5115787;28;20024;-51
2022/08/26 00:19:01;;;;;;;6.07;2.13;;;;;;;26.51;38.93;101903.28;5116119;28;20028;-49
2022/08/26 00:21:30;;;;;;;7.13;2.15;;;;;;;26.51;38.70;101905.91;5115804;28;20422;-49
2022/08/26 00:23:58;;;;;;;7.25;1.90;;;;;;;26.48;38.78;101900.59;5115521;28;20028;-48
2022/08/26 00:26:27;;;;;;;9.40;2.40;;;;;;;26.42;38.73;101900.50;5116036;28;20027;-48
2022/08/26 00:28:55;;;;;;;7.70;2.72;;;;;;;26.39;38.75;101896.06;5098218;28;20447;-50
2022/08/26 00:31:24;;;;;;;7.57;2.42;;;;;;;26.43;38.75;101904.91;5115907;28;20045;-48
2022/08/26 00:33:52;;;;;;;11.02;2.50;;;;;;;26.43;38.75;101891.75;5115853;28;20024;-49
2022/08/26 00:36:21;;;;;;;8.68;2.58;;;;;;;26.41;38.69;101895.19;5115779;28;20024;-49
2022/08/26 00:38:49;;;;;;;6.80;2.00;;;;;;;26.32;38.75;101886.31;5097781;28;20020;-48
2022/08/26 00:41:19;;;;;;;9.18;2.28;;;;;;;26.30;38.94;101887.16;5115667;28;20388;-49
2022/08/26 00:43:48;;;;;;;7.90;2.63;;;;;;;26.36;38.83;101876.72;5115472;28;20103;-48
2022/08/26 00:46:24;;;;;;;8.05;2.05;;;;;;;26.39;38.49;101879.41;5114745;28;20503;-49
2022/08/26 00:48:53;;;;;;;5.70;1.70;;;;;;;26.41;38.73;101872.41;5097494;28;20027;-50
2022/08/26 00:51:24;;;;;;;6.60;1.60;;;;;;;26.39;38.77;101868.88;5080417;28;20521;-50
2022/08/26 00:54:01;;;;;;;9.40;1.90;;;;;;;26.33;38.68;101874.00;5115500;28;20055;-49
2022/08/26 00:56:35;;;;;;;6.38;1.98;;;;;;;26.26;38.56;101872.16;5114852;28;20051;-48
2022/08/26 00:59:06;;;;;;;4.45;1.58;;;;;;;26.26;38.92;101875.66;5096867;28;20062;-48
2022/08/26 01:01:35;;;;;;;7.70;2.00;;;;;;;26.21;38.86;101869.44;5115255;28;20080;-48
2022/08/26 01:04:03;;;;;;;7.68;2.15;;;;;;;26.20;38.79;101868.56;5097018;28;20031;-51
2022/08/26 01:06:32;;;;;;;6.35;1.85;;;;;;;26.12;39.01;101857.03;5115286;28;20027;-47
2022/08/26 01:09:00;;;;;;;5.75;1.85;;;;;;;26.12;38.79;101867.53;5114985;28;20038;-47
2022/08/26 01:11:29;;;;;;;6.68;2.28;;;;;;;26.11;38.92;101875.34;5114796;28;20700;-47
2022/08/26 01:13:59;;;;;;;6.93;2.42;;;;;;;26.14;38.69;101875.44;5114786;28;20031;-47
2022/08/26 01:16:27;;;;;;;6.07;1.83;;;;;;;26.15;38.93;101872.81;5114689;28;20486;-47
2022/08/26 01:18:58;;;;;;;6.07;1.88;;;;;;;26.10;38.58;101869.22;5114645;28;20031;-49
2022/08/26 01:21:31;;;;;;;8.00;2.60;;;;;;;26.20;38.63;101879.06;5096767;28;20019;-47
2022/08/26 01:24:00;;;;;;;5.53;1.75;;;;;;;26.20;38.53;101875.56;5079807;28;20024;-47
2022/08/26 01:26:33;;;;;;;6.75;1.67;;;;;;;26.15;38.57;101880.72;5114680;28;20449;-47
2022/08/26 01:29:04;;;;;;;6.93;1.95;;;;;;;26.12;38.44;101878.06;5096636;28;20471;-47
2022/08/26 01:31:37;;;;;;;6.55;1.83;;;;;;;26.12;38.79;101887.69;5114827;28;20023;-47
2022/08/26 01:34:11;;;;;;;6.93;2.17;;;;;;;26.17;38.73;101879.00;5097019;28;20568;-51
2022/08/26 01:36:40;;;;;;;9.35;2.22;;;;;;;26.15;38.59;101878.09;5096707;28;20434;-48
2022/08/26 01:39:09;;;;;;;6.05;1.95;;;;;;;26.11;38.79;101881.53;5114737;28;20030;-47
2022/08/26 01:41:37;;;;;;;9.02;2.10;;;;;;;26.13;38.32;101878.94;5114306;28;20027;-50
2022/08/26 01:44:08;;;;;;;6.53;1.80;;;;;;;26.13;38.54;101885.09;5114293;28;20027;-47
2022/08/26 01:46:36;;;;;;;6.80;2.30;;;;;;;26.15;38.43;101893.88;5114120;28;20023;-47
2022/08/26 01:49:06;;;;;;;8.13;1.75;;;;;;;26.03;38.75;101896.25;5114565;28;20377;-49
2022/08/26 01:51:36;;;;;;;6.55;1.88;;;;;;;26.00;38.89;101893.56;5114239;28;20019;-47
2022/08/26 01:54:06;;;;;;;6.65;1.77;;;;;;;26.08;38.49;101886.72;5096193;28;20027;-53
2022/08/26 01:56:35;;;;;;;5.80;1.60;;;;;;;26.04;38.31;101890.13;5114319;28;20044;-51
2022/08/26 01:59:06;;;;;;;7.68;1.95;;;;;;;26.01;38.68;101890.06;5114113;28;20378;-49
2022/08/26 02:01:34;;;;;;;6.88;2.15;;;;;;;25.99;38.52;101892.69;5114017;28;20050;-49
2022/08/26 02:04:06;;;;;;;7.47;1.65;;;;;;;26.05;38.48;101895.44;5096211;28;20030;-50
2022/08/26 02:06:37;;;;;;;7.22;2.40;;;;;;;26.08;38.42;101898.09;5114023;28;20044;-49
2022/08/26 02:09:06;;;;;;;7.03;1.77;;;;;;;25.96;38.61;101891.75;5114053;28;20028;-49
2022/08/26 02:11:35;;;;;;;5.68;2.15;;;;;;;25.97;38.44;101893.50;5113652;28;20026;-47
2022/08/26 02:14:11;;;;;;;6.97;2.20;;;;;;;25.92;38.34;101899.56;5113671;28;20035;-47
2022/08/26 02:16:41;;;;;;;6.47;1.73;;;;;;;25.87;38.42;101898.56;5113590;28;20487;-47
2022/08/26 02:19:13;;;;;;;5.03;1.48;;;;;;;25.93;38.34;101903.97;5113774;28;20453;-49
2022/08/26 02:21:42;;;;;;;8.05;1.80;;;;;;;25.89;38.32;101896.00;5113831;28;20020;-51
2022/08/26 02:24:14;;;;;;;5.65;1.85;;;;;;;25.89;38.38;101906.50;5113062;28;20026;-51
2022/08/26 02:26:44;;;;;;;4.32;1.45;;;;;;;25.79;38.31;101903.69;5113454;28;20035;-50
2022/08/26 02:29:33;;;;;;;6.78;1.45;;;;;;;25.97;37.91;101909.28;5095455;28;20034;-52
2022/08/26 02:32:02;;;;;;;6.05;1.90;;;;;;;25.92;38.15;101910.06;5095391;28;20062;-49
2022/08/26 02:34:32;;;;;;;5.38;1.55;;;;;;;25.92;37.77;101914.44;5113649;28;20019;-47
2022/08/26 02:37:04;;;;;;;5.38;1.58;;;;;;;25.86;38.13;101922.22;5113293;28;20031;-50
2022/08/26 02:39:33;;;;;;;6.38;1.77;;;;;;;25.82;38.19;101918.63;5095153;28;20371;-48
2022/08/26 02:42:01;;;;;;;5.40;1.55;;;;;;;25.75;38.40;101914.09;5113623;28;20019;-51
2022/08/26 02:44:30;;;;;;;3.42;1.02;;;;;;;25.76;38.14;101908.00;5113387;28;20051;-50
2022/08/26 02:46:57;;;;;;;3.78;1.33;;;;;;;25.74;38.07;101913.19;5112986;28;20053;-52
2022/08/26 02:49:27;;;;;;;7.20;1.60;;;;;;;25.76;38.14;101908.00;5113019;28;20032;-53
2022/08/26 02:51:55;;;;;;;5.35;1.75;;;;;;;25.71;38.02;101907.00;5113353;28;20027;-52
2022/08/26 02:54:24;;;;;;;5.60;1.85;;;;;;;25.71;38.06;101904.38;5095187;28;20123;-51
2022/08/26 02:56:52;;;;;;;9.55;1.92;;;;;;;25.66;37.94;101892.88;5113095;28;20039;-51
2022/08/26 02:59:20;;;;;;;3.63;1.48;;;;;;;25.62;38.13;101897.19;5113208;28;20027;-52
2022/08/26 03:01:48;;;;;;;5.32;1.35;;;;;;;25.62;38.27;101903.34;5112986;28;20032;-52
2022/08/26 03:04:17;;;;;;;4.72;1.60;;;;;;;25.58;38.32;101893.63;5113024;28;20016;-52
2022/08/26 03:06:45;;;;;;;6.90;1.73;;;;;;;25.71;38.12;101889.53;5113112;28;20085;-53
2022/08/26 03:09:14;;;;;;;4.47;1.20;;;;;;;25.65;38.03;101891.13;5112955;28;20514;-53
2022/08/26 03:11:43;;;;;;;5.70;1.45;;;;;;;25.54;38.16;101890.91;5112746;28;20035;-50
2022/08/26 03:14:12;;;;;;;3.00;1.17;;;;;;;25.54;38.19;101886.53;5094682;28;20024;-49
2022/08/26 03:16:40;;;;;;;3.63;1.50;;;;;;;25.48;38.23;101882.03;5113171;28;20043;-50
2022/08/26 03:19:10;;;;;;;4.75;1.70;;;;;;;25.51;38.12;101891.72;5112930;28;20024;-50
2022/08/26 03:21:39;;;;;;;5.95;2.03;;;;;;;25.46;38.24;101869.72;5113116;28;20426;-50
2022/08/26 03:24:09;;;;;;;7.60;1.80;;;;;;;25.51;38.18;101883.81;5113031;28;20024;-49
2022/08/26 03:26:38;;;;;;;3.88;1.40;;;;;;;25.54;38.21;101889.16;5112818;28;20107;-53
2022/08/26 03:31:54;;;;;;;3.47;1.42;;;;;;;25.45;38.22;101886.34;5101244;28;20390;-48
2022/08/26 03:34:22;;;;;;;5.20;2.05;;;;;;;25.46;37.94;101883.75;5113881;28;20044;-48
2022/08/26 03:36:51;;;;;;;7.10;2.25;;;;;;;25.44;38.10;101884.56;5117048;28;20019;-49
2022/08/26 03:39:20;;;;;;;3.95;1.42;;;;;;;25.43;37.94;101886.28;5116767;28;20030;-48
2022/08/26 03:41:48;;;;;;;5.07;1.88;;;;;;;25.42;38.15;101883.66;5116703;28;20123;-48
2022/08/26 03:44:17;;;;;;;5.82;1.92;;;;;;;25.45;37.89;101867.97;5116932;28;20024;-49
2022/08/26 03:46:45;;;;;;;6.30;2.10;;;;;;;25.55;37.80;101880.41;5116696;28;20077;-49
2022/08/26 03:49:14;;;;;;;6.20;1.60;;;;;;;25.49;37.74;101880.28;5117066;28;20023;-51
2022/08/26 03:51:42;;;;;;;5.75;2.10;;;;;;;25.45;37.82;101876.72;5116400;28;20100;-51
2022/08/26 03:54:11;;;;;;;5.22;1.52;;;;;;;25.46;37.70;101872.34;5116544;28;20093;-52
2022/08/26 03:56:39;;;;;;;7.13;2.15;;;;;;;25.42;37.79;101879.25;5116534;28;20127;-50
2022/08/26 03:59:08;;;;;;;4.43;1.50;;;;;;;25.34;38.07;101879.06;5116531;28;20046;-52
2022/08/26 04:01:37;;;;;;;6.40;2.08;;;;;;;25.38;37.92;101873.88;5116307;28;20019;-49
2022/08/26 04:04:05;;;;;;;4.68;1.80;;;;;;;25.31;37.95;101878.13;5116266;28;20044;-49
2022/08/26 04:06:37;;;;;;;5.65;1.98;;;;;;;25.32;37.98;101878.13;5116218;28;20110;-52
2022/08/26 04:09:08;;;;;;;6.20;2.30;;;;;;;25.32;37.77;101872.03;5116562;28;20027;-49
2022/08/26 04:11:38;;;;;;;8.60;1.48;;;;;;;25.37;37.77;101880.91;5115843;28;20040;-51
2022/08/26 04:14:10;;;;;;;5.63;2.20;;;;;;;25.33;37.94;101872.03;5081574;28;20400;-50
2022/08/26 04:16:38;;;;;;;4.97;1.48;;;;;;;25.30;37.70;101865.84;5116117;28;20027;-51
2022/08/26 04:19:07;;;;;;;3.70;1.65;;;;;;;25.30;37.62;101863.22;5097743;28;20114;-51
2022/08/26 04:21:37;;;;;;;5.63;1.58;;;;;;;25.33;37.50;101869.41;5116040;28;20027;-52
2022/08/26 04:24:06;;;;;;;6.78;1.63;;;;;;;25.30;37.49;101865.84;5116017;28;20061;-47
2022/08/26 04:26:36;;;;;;;5.93;1.48;;;;;;;25.12;37.69;101842.72;5097787;28;20035;-48
2022/08/26 04:29:08;;;;;;;9.35;2.20;;;;;;;25.19;37.51;101860.34;5115878;28;20054;-49
2022/08/26 04:31:37;;;;;;;3.80;1.77;;;;;;;25.30;37.55;101869.38;5115419;28;20038;-48
2022/08/26 04:34:06;;;;;;;4.78;1.67;;;;;;;25.25;37.40;101871.00;5098012;28;20023;-47
2022/08/26 04:36:35;;;;;;;4.57;1.70;;;;;;;25.21;37.58;101877.03;5115543;28;20024;-48
2022/08/26 04:39:04;;;;;;;4.78;2.00;;;;;;;25.22;37.35;101870.06;5115790;28;20046;-49
2022/08/26 04:41:34;;;;;;;3.95;1.40;;;;;;;25.26;37.46;101872.78;5115845;28;20047;-52
2022/08/26 04:44:05;;;;;;;5.60;1.35;;;;;;;25.16;37.60;101868.16;5115849;28;20055;-50
2022/08/26 04:46:34;;;;;;;3.05;1.40;;;;;;;25.06;37.42;101853.06;5115232;28;20028;-51
2022/08/26 04:49:02;;;;;;;4.85;1.55;;;;;;;25.12;37.49;101868.97;5115190;28;20024;-52
2022/08/26 04:51:32;;;;;;;5.50;1.50;;;;;;;25.11;37.58;101864.56;5115281;28;20438;-51
2022/08/26 04:54:00;;;;;;;2.75;1.10;;;;;;;25.10;37.79;101873.28;5115550;28;20081;-52
2022/08/26 04:56:31;;;;;;;3.17;1.13;;;;;;;25.11;37.74;101867.19;5115170;28;20047;-49
2022/08/26 04:59:00;;;;;;;3.50;1.00;;;;;;;25.12;37.47;101875.09;5080301;28;20476;-49
2022/08/26 05:01:30;;;;;;;4.35;1.13;;;;;;;25.15;37.52;101883.03;5115377;28;20031;-51
2022/08/26 05:03:59;;;;;;;4.43;1.33;;;;;;;25.06;38.12;101871.44;5114942;28;20034;-54
2022/08/26 05:06:27;;;;;;;6.93;1.40;;;;;;;24.91;38.12;101857.13;5096480;28;20568;-52
2022/08/26 05:08:56;;;;;;;5.43;1.42;;;;;;;25.00;37.83;101875.69;5114500;28;20031;-52
2022/08/26 05:11:24;;;;;;;5.05;1.35;;;;;;;25.09;38.08;101872.38;5114981;28;20052;-51
2022/08/26 05:13:52;;;;;;;4.43;1.20;;;;;;;25.10;38.13;101873.28;5114466;28;20024;-51
2022/08/26 05:16:21;;;;;;;6.97;1.40;;;;;;;25.02;37.85;101871.34;5114933;28;20023;-52
2022/08/26 05:18:48;;;;;;;5.80;1.35;;;;;;;25.03;37.82;101883.63;5114894;28;20028;-52
2022/08/26 05:21:24;;;;;;;5.72;1.23;;;;;;;25.05;38.02;101872.28;5114931;28;20495;-51
2022/08/26 05:23:54;;;;;;;7.18;1.58;;;;;;;25.03;37.99;101867.00;5114954;28;20099;-52
2022/08/26 05:26:24;;;;;;;4.28;1.20;;;;;;;25.00;37.96;101870.44;5114721;28;20023;-49
2022/08/26 05:28:54;;;;;;;6.57;1.20;;;;;;;25.06;37.81;101863.56;5114306;28;20408;-47
2022/08/26 05:31:25;;;;;;;6.00;1.67;;;;;;;25.05;38.16;101865.31;5114732;28;20054;-51
2022/08/26 05:33:56;;;;;;;6.82;1.52;;;;;;;25.07;37.52;101862.72;5114452;28;20433;-48
2022/08/26 05:36:26;;;;;;;5.10;1.40;;;;;;;25.03;38.09;101867.88;5096694;28;20039;-51
2022/08/26 05:38:56;;;;;;;5.75;1.08;;;;;;;25.03;37.73;101865.25;5114183;28;20118;-50
2022/08/26 05:41:27;;;;;;;4.20;1.13;;;;;;;25.05;37.63;101864.41;5114129;28;20046;-50
2022/08/26 05:43:57;;;;;;;3.13;0.93;;;;;;;25.06;37.89;101869.72;5096289;28;20357;-47
2022/08/26 05:46:26;;;;;;;4.43;1.10;;;;;;;25.02;37.95;101871.34;5114165;28;20032;-47
2022/08/26 05:48:55;;;;;;;4.07;1.60;;;;;;;25.05;37.99;101870.56;5114192;28;20034;-48
2022/08/26 05:51:24;;;;;;;2.80;0.88;;;;;;;25.00;38.06;101874.81;5114457;28;20036;-48
2022/08/26 05:53:53;;;;;;;3.10;1.10;;;;;;;25.05;38.00;101874.91;5114264;28;20027;-48
2022/08/26 05:56:26;;;;;;;5.65;1.10;;;;;;;24.98;38.01;101869.53;5095896;28;20111;-47
2022/08/26 05:58:55;;;;;;;3.00;1.50;;;;;;;25.00;38.23;101880.94;5113325;28;20384;-48
2022/08/26 06:01:25;;;;;;;4.22;1.48;;;;;;;25.00;37.81;101867.81;5096124;28;20046;-48
2022/08/26 06:03:57;;;;;;;3.38;1.35;;;;;;;25.04;37.98;101879.28;5114410;28;20395;-47
2022/08/26 06:06:29;;;;;;;6.10;1.20;;;;;;;25.08;38.05;101875.00;5114265;28;20073;-53
2022/08/26 06:08:58;;;;;;;4.30;1.25;;;;;;;25.11;38.21;101875.94;5113865;28;20488;-48
2022/08/26 06:11:27;;;;;;;2.78;1.10;;;;;;;25.15;38.06;101879.53;5095949;28;20023;-51
2022/08/26 06:13:57;;;;;;;5.35;1.10;;;;;;;25.15;38.27;101876.91;5113509;28;20024;-51
2022/08/26 06:16:25;;;;;;;9.65;1.77;;;;;;;25.27;38.10;101877.19;5114040;28;20107;-52
2022/08/26 06:18:54;;;;;;;8.60;2.00;;;;;;;25.22;38.34;101881.44;5113744;28;20141;-50
2022/08/26 06:21:25;;;;;;;7.80;2.35;;;;;;;25.27;38.31;101879.81;5113388;28;20023;-52
2022/08/26 06:26:47;;;;;;;6.80;2.08;;;;;;;25.41;38.12;101882.72;5106209;28;20047;-52
2022/08/26 06:29:15;;;;;;;5.68;1.77;;;;;;;25.43;38.38;101882.78;5113814;28;20020;-48
2022/08/26 06:31:43;;;;;;;13.32;2.17;;;;;;;25.46;38.71;101886.38;5113660;28;20034;-52
2022/08/26 06:34:12;;;;;;;5.88;1.60;;;;;;;25.45;38.87;101884.59;5112986;28;20027;-51
2022/08/26 06:36:43;;;;;;;5.63;1.60;;;;;;;25.46;38.94;101881.09;5113641;28;20023;-52
2022/08/26 06:39:14;;;;;;;12.48;1.67;;;;;;;25.51;38.76;101886.44;5113555;28;20031;-52
2022/08/26 06:41:44;;;;;;;5.40;1.52;;;;;;;25.62;39.02;101886.69;5113392;28;20366;-52
2022/08/26 06:44:14;;;;;;;7.88;1.73;;;;;;;25.63;38.84;101886.72;5113218;28;20160;-48
2022/08/26 06:46:43;;;;;;;10.95;2.45;;;;;;;25.68;39.03;101883.28;5113090;28;20072;-51
2022/08/26 06:49:11;;;;;;;5.80;1.77;;;;;;;25.75;38.98;101883.44;5095196;28;20027;-50
2022/08/26 06:51:41;;;;;;;7.28;2.47;;;;;;;25.81;39.24;101879.16;5113283;28;20027;-51
2022/08/26 06:54:11;;;;;;;11.50;2.05;;;;;;;25.80;39.22;101875.66;5113316;28;20027;-52
2022/08/26 06:56:42;;;;;;;7.10;2.03;;;;;;;25.91;39.12;101883.75;5091510;28;20524;-48
2022/08/26 06:59:12;;;;;;;9.90;2.25;;;;;;;25.93;39.40;101872.41;5075009;28;20039;-52
2022/08/26 07:01:43;;;;;;;8.73;1.67;;;;;;;25.97;39.29;101886.50;5092561;28;20028;-50
2022/08/26 07:04:13;;;;;;;10.80;2.40;;;;;;;26.01;39.30;101885.72;5092832;28;20074;-52
2022/08/26 07:06:47;;;;;;;6.18;1.83;;;;;;;26.07;39.27;101884.94;5092708;28;20127;-53
2022/08/26 07:09:16;;;;;;;7.72;1.60;;;;;;;26.09;39.30;101885.84;5092721;28;20120;-52
2022/08/26 07:11:45;;;;;;;9.68;1.52;;;;;;;26.09;39.55;101888.47;5092721;28;20111;-52
2022/08/26 07:14:13;;;;;;;8.75;1.58;;;;;;;26.13;39.65;101892.97;5091083;28;20081;-51
2022/08/26 07:16:42;;;;;;;4.53;1.63;;;;;;;26.17;39.30;101892.16;5092314;28;20043;-51
2022/08/26 07:19:10;;;;;;;8.82;1.80;;;;;;;26.26;39.37;101894.06;5092749;28;20028;-52
2022/08/26 07:21:42;;;;;;;10.02;1.90;;;;;;;26.29;39.48;101895.88;5092535;28;20028;-52
2022/08/26 07:24:10;;;;;;;3.92;1.27;;;;;;;26.33;39.58;101898.59;5076488;28;20027;-53
2022/08/26 07:26:40;;;;;;;6.38;1.65;;;;;;;26.33;39.68;101900.31;5078981;28;20052;-46
2022/08/26 07:29:08;;;;;;;6.60;1.88;;;;;;;26.35;39.51;101901.25;5079371;28;20032;-52
2022/08/26 07:31:38;;;;;;;6.20;2.05;;;;;;;26.30;39.24;101897.66;5079199;28;20028;-52
2022/08/26 07:34:08;;;;;;;5.80;1.80;;;;;;;26.41;39.13;101909.25;5080840;28;20021;-53
2022/08/26 07:36:37;;;;;;;5.35;1.73;;;;;;;26.30;39.46;101901.16;5055154;28;20035;-53
2022/08/26 07:39:05;;;;;;;8.70;1.30;;;;;;;26.33;39.33;101905.59;5080228;28;20488;-51
2022/08/26 07:41:35;;;;;;;7.53;1.65;;;;;;;26.32;39.52;101904.72;5079647;28;20024;-47
2022/08/26 07:44:04;;;;;;;4.28;1.38;;;;;;;26.35;39.19;101903.88;5081468;28;20032;-50
2022/08/26 07:46:32;;;;;;;4.50;2.03;;;;;;;26.33;39.19;101902.94;5081498;28;20500;-51
2022/08/26 07:49:00;;;;;;;5.80;1.40;;;;;;;26.42;39.27;101911.03;5079215;28;20081;-51
2022/08/26 07:51:29;;;;;;;9.07;1.92;;;;;;;26.41;39.02;101911.88;5080628;28;20028;-49
2022/08/26 07:53:57;;;;;;;5.63;1.58;;;;;;;26.31;39.13;101891.53;5081058;28;20043;-49
2022/08/26 07:56:26;;;;;;;5.45;1.55;;;;;;;26.26;39.46;101901.09;5082233;28;20031;-50
2022/08/26 07:58:54;;;;;;;6.25;1.73;;;;;;;26.27;39.53;101908.13;5101927;28;20392;-48
2022/08/26 08:01:24;;;;;;;6.05;1.80;;;;;;;26.32;39.30;101902.09;5099587;28;20093;-47
2022/08/26 08:03:54;;;;;;;2.90;1.55;;;;;;;26.45;38.91;101903.19;5081993;28;20038;-47
2022/08/26 08:06:24;;;;;;;5.82;1.80;;;;;;;26.45;39.01;101905.81;5103057;28;20024;-50
2022/08/26 08:08:53;;;;;;;8.43;2.15;;;;;;;26.38;39.39;101904.84;5099535;28;20504;-47
2022/08/26 08:11:21;;;;;;;9.75;2.10;;;;;;;26.37;39.30;101900.44;5099881;28;20125;-51
2022/08/26 08:13:51;;;;;;;8.85;1.92;;;;;;;26.33;39.18;101903.84;5102596;28;20020;-51
2022/08/26 08:16:18;;;;;;;10.30;1.95;;;;;;;26.37;39.49;101908.31;5098822;28;20055;-53
2022/08/26 08:18:47;;;;;;;7.95;2.05;;;;;;;26.38;39.31;101904.84;5081159;28;20423;-51
2022/08/26 08:21:15;;;;;;;10.48;1.83;;;;;;;26.39;39.42;101901.31;5103669;28;20036;-53
2022/08/26 08:23:43;;;;;;;8.75;1.75;;;;;;;26.50;39.20;101898.00;5103281;28;20027;-51
2022/08/26 08:26:10;;;;;;;8.45;1.77;;;;;;;26.57;39.25;101899.00;5106094;28;20027;-50
2022/08/26 08:28:38;;;;;;;6.43;1.60;;;;;;;26.60;39.03;101902.53;5104091;28;20035;-50
2022/08/26 08:31:05;;;;;;;4.95;1.23;;;;;;;26.64;38.84;101899.13;5104723;28;20077;-51
2022/08/26 08:33:34;;;;;;;5.35;1.40;;;;;;;26.67;38.77;101896.53;5103725;28;20431;-49
2022/08/26 08:36:02;;;;;;;6.03;1.75;;;;;;;26.67;38.90;101893.91;5104279;28;20024;-52
2022/08/26 08:38:29;;;;;;;5.05;1.40;;;;;;;26.66;38.97;101902.66;5070154;28;20084;-51
2022/08/26 08:40:57;;;;;;;6.57;1.80;;;;;;;26.67;38.83;101898.25;5102317;28;20031;-52
2022/08/26 08:43:38;;;;;;;7.07;1.83;;;;;;;26.63;38.41;101896.47;5102051;28;20020;-52
2022/08/26 08:46:12;;;;;;;6.03;2.00;;;;;;;26.77;38.07;101900.22;5084649;28;20084;-51
2022/08/26 08:48:45;;;;;;;6.45;2.13;;;;;;;26.52;38.36;101894.53;5087204;28;20061;-52
2022/08/26 08:51:19;;;;;;;6.80;1.67;;;;;;;26.57;38.44;101891.09;5104711;28;20089;-53
2022/08/26 08:53:48;;;;;;;5.18;1.73;;;;;;;26.64;38.16;101888.59;5102334;28;20075;-49
2022/08/26 08:56:17;;;;;;;8.95;2.22;;;;;;;26.71;38.19;101886.06;5087459;28;20081;-52
2022/08/26 08:59:09;;;;;;;7.75;1.80;;;;;;;26.75;38.04;101896.66;5103194;28;20515;-52
2022/08/26 09:01:47;;;;;;;12.73;1.77;;;;;;;26.74;38.13;101887.00;5098817;28;20048;-51
2022/08/26 09:04:43;;;;;;;6.03;1.70;;;;;;;26.74;37.48;101893.97;5080593;28;20102;-52
2022/08/26 09:07:17;;;;;;;6.25;1.70;;;;;;;26.65;38.30;101889.47;5095677;28;20535;-52
2022/08/26 09:09:54;;;;;;;7.95;2.15;;;;;;;26.61;38.12;101885.03;5084762;28;20030;-52
2022/08/26 09:12:25;;;;;;;10.30;2.10;;;;;;;26.65;38.37;101890.34;5102268;28;20077;-52
2022/08/26 09:14:56;;;;;;;6.18;2.05;;;;;;;26.73;38.27;101885.22;5079939;28;20056;-51
2022/08/26 09:17:47;;;;;;;7.43;1.80;;;;;;;26.73;38.46;101874.69;5080022;28;20028;-53
2022/08/26 09:20:20;;;;;;;7.28;1.70;;;;;;;26.81;38.18;101883.59;5094803;28;20036;-52
2022/08/26 09:22:50;;;;;;;11.25;1.65;;;;;;;26.82;37.97;101882.75;5085078;28;20032;-52
2022/08/26 09:25:18;;;;;;;4.90;1.40;;;;;;;26.89;37.75;101873.19;5103954;28;20024;-49
2022/08/26 09:27:49;;;;;;;7.25;1.50;;;;;;;26.99;37.54;101880.38;5102964;28;20027;-51
2022/08/26 09:30:29;;;;;;;11.90;2.45;;;;;;;27.07;37.02;101882.22;5083488;28;20057;-50
2022/08/26 09:33:01;;;;;;;7.00;2.03;;;;;;;26.96;37.30;101880.34;5098061;28;20055;-49
2022/08/26 09:35:33;;;;;;;10.27;2.10;;;;;;;26.91;36.96;101881.13;5101775;28;20066;-51
2022/08/26 09:38:00;;;;;;;6.72;1.70;;;;;;;26.97;36.89;101868.94;5101912;28;20035;-49
2022/08/26 09:40:31;;;;;;;7.45;1.80;;;;;;;26.93;36.86;101866.25;5099760;28;20020;-48
2022/08/26 09:43:12;;;;;;;5.25;1.58;;;;;;;26.80;36.73;101866.06;5098091;28;20036;-52
2022/08/26 09:45:43;;;;;;;10.02;1.90;;;;;;;26.84;36.68;101867.88;5102296;28;20028;-52
2022/08/26 09:48:11;;;;;;;6.18;1.50;;;;;;;26.77;36.56;101858.09;5104343;28;20445;-50
2022/08/26 09:51:00;;;;;;;12.43;2.17;;;;;;;26.75;36.72;101865.06;5103213;28;20028;-53
2022/08/26 09:53:32;;;;;;;9.82;1.73;;;;;;;26.84;36.32;101856.47;5092094;28;20039;-49
2022/08/26 09:56:38;;;;;;;6.40;1.60;;;;;;;26.93;36.13;101855.72;5097440;28;20032;-48
2022/08/26 09:59:09;;;;;;;;;;;;;;;26.90;36.36;101855.66;5099985;28;20048;-49
2022/08/26 10:01:40;;;;;;;8.20;1.80;;;;;;;26.87;36.75;101847.72;5083620;28;19916;-47
2022/08/26 10:04:13;;;;;;;7.90;1.98;;;;;;;26.66;36.47;101851.75;5103900;28;20404;-47
2022/08/26 10:06:44;;;;;;;11.98;1.90;;;;;;;26.72;36.61;101846.59;5083816;28;20054;-47
2022/08/26 10:09:15;;;;;;;8.93;2.00;;;;;;;26.81;36.47;101841.50;5083902;28;20028;-48
2022/08/26 10:11:48;;;;;;;8.80;1.95;;;;;;;26.84;36.28;101846.81;5085804;28;20065;-48
2022/08/26 10:14:42;;;;;;;6.43;1.60;;;;;;;26.86;36.47;101843.31;5102076;28;20024;-51
2022/08/26 10:17:17;;;;;;;7.63;1.60;;;;;;;26.92;35.83;101849.56;5097272;28;20078;-52
2022/08/26 10:19:48;;;;;;;6.82;1.50;;;;;;;26.93;35.80;101847.81;5085158;28;20027;-50
2022/08/26 10:22:32;;;;;;;6.00;1.73;;;;;;;26.96;35.94;101830.31;5102306;28;20031;-52
2022/08/26 10:25:04;;;;;;;6.93;1.75;;;;;;;26.87;36.09;101838.09;5100922;28;20038;-53
2022/08/26 10:27:40;;;;;;;5.68;1.30;;;;;;;26.92;36.31;101835.50;5104135;28;20023;-53
2022/08/26 10:30:13;;;;;;;9.38;2.08;;;;;;;26.96;35.99;101829.44;5102014;28;20031;-53
2022/08/26 10:32:47;;;;;;;8.50;1.88;;;;;;;26.96;35.42;101830.31;5100637;28;20035;-48
2022/08/26 10:35:18;;;;;;;7.63;1.70;;;;;;;26.95;35.78;101827.66;5103310;28;20031;-50
2022/08/26 10:37:52;;;;;;;4.80;1.50;;;;;;;26.96;36.10;101826.81;5083254;28;20367;-52
2022/08/26 10:40:26;;;;;;;7.30;1.73;;;;;;;27.03;35.73;101822.50;5064854;28;20388;-49
2022/08/26 10:43:02;;;;;;;5.95;1.88;;;;;;;26.99;35.46;101816.28;5102407;28;20027;-51
2022/08/26 10:45:35;;;;;;;5.05;1.50;;;;;;;26.82;34.80;101819.56;5102308;28;20115;-50
2022/08/26 10:48:07;;;;;;;3.95;1.27;;;;;;;26.86;35.85;101822.25;5101093;28;20080;-49
2022/08/26 10:50:45;;;;;;;7.25;1.42;;;;;;;26.95;35.67;101819.75;5099717;28;20028;-50
2022/08/26 10:53:20;;;;;;;4.18;1.33;;;;;;;27.04;35.37;101821.66;5082664;28;20531;-51
2022/08/26 10:56:11;;;;;;;7.13;2.40;;;;;;;26.96;34.98;101803.09;5100999;28;20050;-50
2022/08/26 10:59:03;;;;;;;3.55;1.45;;;;;;;27.11;34.22;101815.56;5077368;28;20082;-50
2022/08/26 11:01:57;;;;;;;9.20;1.73;;;;;;;27.02;34.05;101799.66;5077088;28;20067;-51
2022/08/26 11:04:29;;;;;;;4.55;1.60;;;;;;;27.07;34.62;101805.84;5078929;28;20031;-48
2022/08/26 11:07:36;;;;;;;4.43;1.58;;;;;;;27.07;34.88;101805.84;5101577;28;20028;-51
2022/08/26 11:10:23;;;;;;;8.32;1.35;;;;;;;26.99;35.04;101804.03;5087902;28;20040;-53
2022/08/26 11:12:55;;;;;;;5.07;1.63;;;;;;;26.82;35.39;101795.88;5077812;28;20042;-51
2022/08/26 11:15:25;;;;;;;9.13;1.73;;;;;;;26.86;35.48;101790.66;5100918;28;20052;-51
2022/08/26 11:17:54;;;;;;;4.88;2.05;;;;;;;26.86;35.44;101788.03;5103273;28;20093;-52
2022/08/26 11:20:41;;;;;;;6.63;1.88;;;;;;;26.83;34.94;101788.88;5100069;28;20028;-52
2022/08/26 11:23:12;;;;;;;5.00;1.25;;;;;;;26.99;34.99;101796.13;5102751;28;20024;-52
2022/08/26 11:26:08;;;;;;;5.57;1.33;;;;;;;27.02;34.38;101786.50;5100199;28;20035;-51
2022/08/26 11:28:38;;;;;;;5.55;1.67;;;;;;;27.08;34.40;101784.81;5096687;28;20477;-50
2022/08/26 11:31:31;;;;;;;7.70;1.75;;;;;;;27.17;34.06;101777.88;5099009;28;20062;-52
2022/08/26 11:34:03;;;;;;;8.55;1.90;;;;;;;27.10;33.52;101784.84;5097826;28;20047;-52
2022/08/26 11:36:59;;;;;;;5.25;1.23;;;;;;;27.13;33.32;101777.88;5092097;28;20032;-52
2022/08/26 11:39:32;;;;;;;4.35;1.50;;;;;;;27.06;33.33;101778.66;5092168;28;20506;-52
2022/08/26 11:42:14;;;;;;;4.18;1.27;;;;;;;27.04;33.96;101772.47;5092234;28;20094;-49
2022/08/26 11:44:44;;;;;;;6.78;1.52;;;;;;;27.02;33.95;101770.69;5057525;28;20380;-49
2022/08/26 11:47:14;;;;;;;10.93;1.70;;;;;;;27.04;34.20;101767.22;5091967;28;20035;-51
2022/08/26 11:49:43;;;;;;;6.57;1.63;;;;;;;27.12;34.29;101765.56;5092073;28;21732;-51